UAE243A OBBI-OMDB
Flight info
| Callsign | UAE243A |
|---|---|
| Flight time | N/A |
| Altitude | 25000 |
| Route | BHR345/30R BHR N697 SODAK P559 VUTEB |
| Aircraft | A388/J-SADE2E3FGHIJ3J4J5M1RWXY/LB1D1 |
Departure
| Time | 2026-05-04 16:41 |
|---|---|
| Airport | Bahrain International Airport (OBBI) |
Arrival
| Time | N/A |
|---|---|
| Airport | Dubai International Airport (OMDB) |
| Time | Latitude | Longitude | Altitude | Speed | Heading |
|---|---|---|---|---|---|
| 2026-05-04 16:13 | 26.27022 | 50.62719 | 20 ft | 0 kts | 206° |
| 2026-05-04 16:24 | 26.27043 | 50.62740 | 26 ft | 2 kts | 110° |
| 2026-05-04 16:25 | 26.27052 | 50.62734 | 23 ft | 0 kts | 84° |
| 2026-05-04 16:34 | 26.27056 | 50.62747 | 24 ft | 5 kts | 77° |
| 2026-05-04 16:34 | 26.27075 | 50.62796 | 23 ft | 7 kts | 80° |
| 2026-05-04 16:35 | 26.26886 | 50.63148 | 20 ft | 19 kts | 123° |
| 2026-05-04 16:35 | 26.26659 | 50.63539 | 25 ft | 18 kts | 122° |
| 2026-05-04 16:36 | 26.26592 | 50.63653 | 23 ft | 18 kts | 122° |
| 2026-05-04 16:36 | 26.26602 | 50.63768 | 21 ft | 0 kts | 59° |
| 2026-05-04 16:37 | 26.26607 | 50.63805 | 23 ft | 5 kts | 84° |
| 2026-05-04 16:37 | 26.26585 | 50.63866 | 23 ft | 11 kts | 117° |
| 2026-05-04 16:37 | 26.26424 | 50.64155 | 22 ft | 29 kts | 123° |
| 2026-05-04 16:38 | 26.26218 | 50.64498 | 20 ft | 24 kts | 122° |
| 2026-05-04 16:39 | 26.26024 | 50.64901 | 21 ft | 14 kts | 92° |
| 2026-05-04 16:39 | 26.26039 | 50.64949 | 23 ft | 1 kts | 70° |
| 2026-05-04 16:40 | 26.26086 | 50.64994 | 26 ft | 10 kts | 39° |
| 2026-05-04 16:40 | 26.26207 | 50.64881 | 24 ft | 20 kts | 303° |
| 2026-05-04 16:41 | 26.26852 | 50.63758 | 23 ft | 152 kts | 302° |
| 2026-05-04 16:41 | 26.29233 | 50.59628 | 1404 ft | 248 kts | 304° |
| 2026-05-04 16:42 | 26.32063 | 50.57803 | 13 ft | 0 kts | 120° |